Fallowfield, United Kingdom
Current Conditions -  °F | °C
As of 9:50 PM on Thursday 27 Nov 2014 (Local Time) from EGCC Reporting Station
Clear Clear  
Wind Chill: 34°   Ceiling: Unl
Heat Index: 39°   Visibility: 5mi
Dew Point: 39°   Wind: 8mph
Humidity: 100%   Direction: 60°ENE
Pressure: 29.59"   Gusts: NA
Location:  53.44°N, 2.22°W
Report Text: EGCC 272150Z 06007KT 8000 NSC 04/04 Q1002 NOSIG
Loading
Personal Weather Stations






























Interactive Weather Map New forecast layout! Learn more

10-Day Weather Forecast

Advertisements
Track Severe Weather on mobile